sensor_id;sensor_type;location;lat;lon;timestamp;noise_LAeq;noise_LA_min;noise_LA_max;noise_LA01;noise_LA95
63692;Laerm;49838;51.798;10.954;2023-02-24T00:02:06;48.70;32.58;67.00;;
63692;Laerm;49838;51.798;10.954;2023-02-24T00:04:35;38.12;32.01;50.78;;
63692;Laerm;49838;51.798;10.954;2023-02-24T00:07:04;36.55;30.84;48.41;;
63692;Laerm;49838;51.798;10.954;2023-02-24T00:09:32;34.21;28.86;50.60;;
63692;Laerm;49838;51.798;10.954;2023-02-24T00:12:00;35.35;29.28;45.64;;
63692;Laerm;49838;51.798;10.954;2023-02-24T00:14:32;37.17;30.04;56.26;;
63692;Laerm;49838;51.798;10.954;2023-02-24T00:17:00;56.16;30.22;78.69;;
63692;Laerm;49838;51.798;10.954;2023-02-24T00:19:30;37.47;29.23;53.38;;
63692;Laerm;49838;51.798;10.954;2023-02-24T00:21:59;33.20;29.16;44.77;;
63692;Laerm;49838;51.798;10.954;2023-02-24T00:24:27;37.14;29.51;47.78;;
63692;Laerm;49838;51.798;10.954;2023-02-24T00:26:57;33.96;29.35;46.14;;
63692;Laerm;49838;51.798;10.954;2023-02-24T00:29:26;33.51;29.85;43.71;;
63692;Laerm;49838;51.798;10.954;2023-02-24T00:31:56;36.23;30.95;48.30;;
63692;Laerm;49838;51.798;10.954;2023-02-24T00:34:25;35.15;29.62;43.05;;
63692;Laerm;49838;51.798;10.954;2023-02-24T00:36:52;35.39;29.54;47.29;;
63692;Laerm;49838;51.798;10.954;2023-02-24T00:39:19;34.50;29.63;47.32;;
63692;Laerm;49838;51.798;10.954;2023-02-24T00:41:53;35.50;30.02;46.38;;
63692;Laerm;49838;51.798;10.954;2023-02-24T00:44:23;32.73;29.02;44.86;;
63692;Laerm;49838;51.798;10.954;2023-02-24T00:46:50;35.92;29.55;48.01;;
63692;Laerm;49838;51.798;10.954;2023-02-24T00:49:19;36.24;31.11;52.62;;
63692;Laerm;49838;51.798;10.954;2023-02-24T00:51:49;34.91;30.26;49.42;;
63692;Laerm;49838;51.798;10.954;2023-02-24T00:54:19;35.78;29.80;50.61;;
63692;Laerm;49838;51.798;10.954;2023-02-24T00:56:49;35.66;29.96;50.09;;
63692;Laerm;49838;51.798;10.954;2023-02-24T00:59:17;35.65;29.14;51.98;;
63692;Laerm;49838;51.798;10.954;2023-02-24T01:01:45;35.42;29.24;46.37;;
63692;Laerm;49838;51.798;10.954;2023-02-24T01:04:15;33.25;28.77;49.70;;
63692;Laerm;49838;51.798;10.954;2023-02-24T01:06:47;32.72;28.68;42.42;;
63692;Laerm;49838;51.798;10.954;2023-02-24T01:09:16;33.10;28.26;45.31;;
63692;Laerm;49838;51.798;10.954;2023-02-24T01:11:46;33.54;28.19;46.90;;
63692;Laerm;49838;51.798;10.954;2023-02-24T01:14:33;53.58;27.42;71.59;;
63692;Laerm;49838;51.798;10.954;2023-02-24T01:17:02;30.93;27.37;42.82;;
63692;Laerm;49838;51.798;10.954;2023-02-24T01:19:32;30.64;27.23;46.17;;
63692;Laerm;49838;51.798;10.954;2023-02-24T01:22:02;33.83;27.44;44.20;;
63692;Laerm;49838;51.798;10.954;2023-02-24T01:24:33;34.31;29.61;46.20;;
63692;Laerm;49838;51.798;10.954;2023-02-24T01:27:00;33.97;28.49;44.55;;
63692;Laerm;49838;51.798;10.954;2023-02-24T01:29:27;32.25;28.02;41.34;;
63692;Laerm;49838;51.798;10.954;2023-02-24T01:31:55;32.14;28.14;43.48;;
63692;Laerm;49838;51.798;10.954;2023-02-24T01:34:24;32.68;28.46;43.20;;
63692;Laerm;49838;51.798;10.954;2023-02-24T01:36:52;33.85;28.55;51.75;;
63692;Laerm;49838;51.798;10.954;2023-02-24T01:39:20;31.47;28.05;40.20;;
63692;Laerm;49838;51.798;10.954;2023-02-24T01:41:49;31.72;27.65;45.23;;
63692;Laerm;49838;51.798;10.954;2023-02-24T01:47:22;31.22;28.43;43.73;;
63692;Laerm;49838;51.798;10.954;2023-02-24T01:49:54;32.89;28.35;42.46;;
63692;Laerm;49838;51.798;10.954;2023-02-24T01:52:23;30.07;27.61;41.03;;
63692;Laerm;49838;51.798;10.954;2023-02-24T01:54:56;29.15;27.41;42.11;;
63692;Laerm;49838;51.798;10.954;2023-02-24T01:57:28;30.17;27.10;54.42;;
63692;Laerm;49838;51.798;10.954;2023-02-24T01:59:58;30.95;27.58;50.98;;
63692;Laerm;49838;51.798;10.954;2023-02-24T02:02:36;30.83;27.85;48.43;;
63692;Laerm;49838;51.798;10.954;2023-02-24T02:05:08;30.82;27.98;41.34;;
63692;Laerm;49838;51.798;10.954;2023-02-24T02:07:37;33.38;29.55;45.31;;
63692;Laerm;49838;51.798;10.954;2023-02-24T02:10:08;35.22;28.46;54.83;;
63692;Laerm;49838;51.798;10.954;2023-02-24T02:12:38;34.84;29.38;49.83;;
63692;Laerm;49838;51.798;10.954;2023-02-24T02:15:10;33.72;28.17;46.64;;
63692;Laerm;49838;51.798;10.954;2023-02-24T02:17:42;30.80;27.36;40.62;;
63692;Laerm;49838;51.798;10.954;2023-02-24T02:20:39;29.39;27.49;41.36;;
63692;Laerm;49838;51.798;10.954;2023-02-24T02:23:25;30.52;27.46;45.70;;
63692;Laerm;49838;51.798;10.954;2023-02-24T02:26:09;35.21;27.78;51.05;;
63692;Laerm;49838;51.798;10.954;2023-02-24T02:29:19;32.41;27.50;41.87;;
63692;Laerm;49838;51.798;10.954;2023-02-24T02:32:16;43.15;28.86;62.93;;
63692;Laerm;49838;51.798;10.954;2023-02-24T02:35:00;34.06;29.16;48.43;;
63692;Laerm;49838;51.798;10.954;2023-02-24T02:37:37;32.60;28.55;43.81;;
63692;Laerm;49838;51.798;10.954;2023-02-24T02:40:08;35.54;28.83;46.65;;
63692;Laerm;49838;51.798;10.954;2023-02-24T02:42:46;36.17;28.51;48.94;;
63692;Laerm;49838;51.798;10.954;2023-02-24T02:45:17;34.53;29.13;45.58;;
63692;Laerm;49838;51.798;10.954;2023-02-24T02:47:48;35.22;27.63;49.60;;
63692;Laerm;49838;51.798;10.954;2023-02-24T02:50:23;31.29;27.34;41.13;;
63692;Laerm;49838;51.798;10.954;2023-02-24T02:52:56;29.79;27.64;40.50;;
63692;Laerm;49838;51.798;10.954;2023-02-24T02:55:30;32.05;28.05;43.09;;
63692;Laerm;49838;51.798;10.954;2023-02-24T02:58:04;34.04;28.83;42.83;;
63692;Laerm;49838;51.798;10.954;2023-02-24T03:00:37;31.22;28.12;41.59;;
63692;Laerm;49838;51.798;10.954;2023-02-24T03:03:10;35.42;28.98;52.51;;
63692;Laerm;49838;51.798;10.954;2023-02-24T03:05:44;33.87;29.46;49.87;;
63692;Laerm;49838;51.798;10.954;2023-02-24T03:08:14;35.90;30.63;42.26;;
63692;Laerm;49838;51.798;10.954;2023-02-24T03:10:46;34.48;30.07;43.57;;
63692;Laerm;49838;51.798;10.954;2023-02-24T03:13:18;34.40;30.02;42.72;;
63692;Laerm;49838;51.798;10.954;2023-02-24T03:15:49;33.12;29.62;43.21;;
63692;Laerm;49838;51.798;10.954;2023-02-24T03:18:20;32.21;29.43;37.94;;
63692;Laerm;49838;51.798;10.954;2023-02-24T03:20:58;32.94;29.50;41.67;;
63692;Laerm;49838;51.798;10.954;2023-02-24T03:23:34;34.33;29.44;50.93;;
63692;Laerm;49838;51.798;10.954;2023-02-24T03:26:09;34.85;30.60;44.02;;
63692;Laerm;49838;51.798;10.954;2023-02-24T03:28:51;36.79;30.59;52.23;;
63692;Laerm;49838;51.798;10.954;2023-02-24T03:31:26;53.96;28.89;72.75;;
63692;Laerm;49838;51.798;10.954;2023-02-24T03:33:59;36.52;30.49;45.50;;
63692;Laerm;49838;51.798;10.954;2023-02-24T03:36:30;37.65;31.75;44.58;;
63692;Laerm;49838;51.798;10.954;2023-02-24T03:38:58;34.60;29.78;46.64;;
63692;Laerm;49838;51.798;10.954;2023-02-24T03:41:30;33.70;30.38;48.66;;
63692;Laerm;49838;51.798;10.954;2023-02-24T03:44:04;35.78;30.23;44.90;;
63692;Laerm;49838;51.798;10.954;2023-02-24T03:46:34;40.54;33.64;49.02;;
63692;Laerm;49838;51.798;10.954;2023-02-24T03:49:05;36.25;31.41;46.56;;
63692;Laerm;49838;51.798;10.954;2023-02-24T03:51:39;37.38;31.22;47.46;;
63692;Laerm;49838;51.798;10.954;2023-02-24T03:54:17;40.46;32.54;50.01;;
63692;Laerm;49838;51.798;10.954;2023-02-24T03:57:00;37.52;32.01;47.86;;
63692;Laerm;49838;51.798;10.954;2023-02-24T03:59:41;36.58;31.05;47.45;;
63692;Laerm;49838;51.798;10.954;2023-02-24T04:02:16;35.64;30.51;48.18;;
63692;Laerm;49838;51.798;10.954;2023-02-24T04:04:50;50.98;31.22;69.60;;
63692;Laerm;49838;51.798;10.954;2023-02-24T04:07:31;56.45;31.45;75.89;;
63692;Laerm;49838;51.798;10.954;2023-02-24T04:10:06;37.51;29.69;54.96;;
63692;Laerm;49838;51.798;10.954;2023-02-24T04:12:38;38.55;31.00;57.39;;
63692;Laerm;49838;51.798;10.954;2023-02-24T04:15:10;42.27;30.79;60.67;;
63692;Laerm;49838;51.798;10.954;2023-02-24T04:17:42;49.38;31.60;65.26;;
63692;Laerm;49838;51.798;10.954;2023-02-24T04:20:12;54.14;31.66;72.67;;
63692;Laerm;49838;51.798;10.954;2023-02-24T04:22:45;43.13;31.71;59.56;;
63692;Laerm;49838;51.798;10.954;2023-02-24T04:25:15;52.76;30.30;70.64;;
63692;Laerm;49838;51.798;10.954;2023-02-24T04:27:45;53.10;31.39;67.54;;
63692;Laerm;49838;51.798;10.954;2023-02-24T04:30:13;38.58;32.35;49.81;;
63692;Laerm;49838;51.798;10.954;2023-02-24T04:32:41;42.14;31.54;55.23;;
63692;Laerm;49838;51.798;10.954;2023-02-24T04:35:12;39.82;31.27;62.11;;
63692;Laerm;49838;51.798;10.954;2023-02-24T04:37:39;37.28;31.58;56.60;;
63692;Laerm;49838;51.798;10.954;2023-02-24T04:40:13;38.01;32.14;55.55;;
63692;Laerm;49838;51.798;10.954;2023-02-24T04:42:43;41.91;32.90;57.83;;
63692;Laerm;49838;51.798;10.954;2023-02-24T04:45:15;54.39;32.54;68.59;;
63692;Laerm;49838;51.798;10.954;2023-02-24T04:47:43;42.26;32.58;59.87;;
63692;Laerm;49838;51.798;10.954;2023-02-24T04:50:15;50.74;32.45;68.86;;
63692;Laerm;49838;51.798;10.954;2023-02-24T04:52:49;54.07;32.17;74.10;;
63692;Laerm;49838;51.798;10.954;2023-02-24T04:55:19;40.53;32.23;59.03;;
63692;Laerm;49838;51.798;10.954;2023-02-24T04:57:48;57.36;36.45;71.49;;
63692;Laerm;49838;51.798;10.954;2023-02-24T05:00:15;44.43;33.43;61.14;;
63692;Laerm;49838;51.798;10.954;2023-02-24T05:02:53;53.07;33.49;70.22;;
63692;Laerm;49838;51.798;10.954;2023-02-24T05:05:23;46.31;33.27;63.32;;
63692;Laerm;49838;51.798;10.954;2023-02-24T05:07:50;37.93;32.06;52.95;;
63692;Laerm;49838;51.798;10.954;2023-02-24T05:10:19;47.71;33.30;64.73;;
63692;Laerm;49838;51.798;10.954;2023-02-24T05:12:52;54.95;33.18;72.94;;
63692;Laerm;49838;51.798;10.954;2023-02-24T05:15:20;40.16;34.59;57.49;;
63692;Laerm;49838;51.798;10.954;2023-02-24T05:17:47;37.72;31.70;51.06;;
63692;Laerm;49838;51.798;10.954;2023-02-24T05:20:16;49.52;32.16;68.54;;
63692;Laerm;49838;51.798;10.954;2023-02-24T05:23:01;53.44;33.66;72.97;;
63692;Laerm;49838;51.798;10.954;2023-02-24T05:25:29;57.82;34.86;72.01;;
63692;Laerm;49838;51.798;10.954;2023-02-24T05:28:03;41.49;34.66;63.15;;
63692;Laerm;49838;51.798;10.954;2023-02-24T05:30:30;51.85;34.73;65.85;;
63692;Laerm;49838;51.798;10.954;2023-02-24T05:32:58;59.97;35.33;78.45;;
63692;Laerm;49838;51.798;10.954;2023-02-24T05:35:26;54.64;34.05;70.26;;
63692;Laerm;49838;51.798;10.954;2023-02-24T05:37:53;53.08;33.11;71.68;;
63692;Laerm;49838;51.798;10.954;2023-02-24T05:40:24;55.47;33.93;76.57;;
63692;Laerm;49838;51.798;10.954;2023-02-24T05:42:52;56.50;33.70;73.13;;
63692;Laerm;49838;51.798;10.954;2023-02-24T05:45:19;58.23;33.44;72.13;;
63692;Laerm;49838;51.798;10.954;2023-02-24T05:47:47;52.88;33.66;70.41;;
63692;Laerm;49838;51.798;10.954;2023-02-24T05:50:14;57.32;35.38;71.45;;
63692;Laerm;49838;51.798;10.954;2023-02-24T05:52:42;57.43;35.23;76.67;;
63692;Laerm;49838;51.798;10.954;2023-02-24T05:55:10;59.42;35.88;76.98;;
63692;Laerm;49838;51.798;10.954;2023-02-24T05:57:39;55.89;34.62;74.62;;
63692;Laerm;49838;51.798;10.954;2023-02-24T06:00:09;53.70;35.54;72.75;;
63692;Laerm;49838;51.798;10.954;2023-02-24T06:02:41;58.68;37.72;71.60;;
63692;Laerm;49838;51.798;10.954;2023-02-24T06:05:16;59.86;38.33;73.14;;
63692;Laerm;49838;51.798;10.954;2023-02-24T06:07:55;57.11;35.35;72.69;;
63692;Laerm;49838;51.798;10.954;2023-02-24T06:10:31;51.19;35.05;69.51;;
63692;Laerm;49838;51.798;10.954;2023-02-24T06:13:00;61.88;41.90;73.47;;
63692;Laerm;49838;51.798;10.954;2023-02-24T06:15:29;59.00;37.19;74.73;;
63692;Laerm;49838;51.798;10.954;2023-02-24T06:17:57;57.91;35.76;74.47;;
63692;Laerm;49838;51.798;10.954;2023-02-24T06:20:26;60.36;40.64;74.25;;
63692;Laerm;49838;51.798;10.954;2023-02-24T06:22:55;62.84;37.98;79.59;;
63692;Laerm;49838;51.798;10.954;2023-02-24T06:25:24;63.25;36.41;79.60;;
63692;Laerm;49838;51.798;10.954;2023-02-24T06:27:52;61.79;38.64;73.95;;
63692;Laerm;49838;51.798;10.954;2023-02-24T06:30:21;62.97;40.07;74.20;;
63692;Laerm;49838;51.798;10.954;2023-02-24T06:32:51;60.70;38.53;76.07;;
63692;Laerm;49838;51.798;10.954;2023-02-24T06:35:19;60.87;41.87;76.39;;
63692;Laerm;49838;51.798;10.954;2023-02-24T06:37:47;62.71;37.76;76.98;;
63692;Laerm;49838;51.798;10.954;2023-02-24T06:40:16;59.90;36.62;76.72;;
63692;Laerm;49838;51.798;10.954;2023-02-24T06:42:44;59.72;36.22;76.38;;
63692;Laerm;49838;51.798;10.954;2023-02-24T06:45:12;56.03;36.19;69.83;;
63692;Laerm;49838;51.798;10.954;2023-02-24T06:47:40;58.69;37.33;76.21;;
63692;Laerm;49838;51.798;10.954;2023-02-24T06:50:10;52.70;36.84;70.99;;
63692;Laerm;49838;51.798;10.954;2023-02-24T06:52:38;55.96;37.45;74.17;;
63692;Laerm;49838;51.798;10.954;2023-02-24T06:55:06;52.16;37.90;69.73;;
63692;Laerm;49838;51.798;10.954;2023-02-24T06:57:51;55.81;38.01;73.25;;
63692;Laerm;49838;51.798;10.954;2023-02-24T07:00:23;54.29;39.01;70.58;;
63692;Laerm;49838;51.798;10.954;2023-02-24T07:03:03;53.21;36.87;71.01;;
63692;Laerm;49838;51.798;10.954;2023-02-24T07:05:42;59.39;37.57;73.35;;
63692;Laerm;49838;51.798;10.954;2023-02-24T07:08:16;61.04;35.88;78.53;;
63692;Laerm;49838;51.798;10.954;2023-02-24T07:10:44;57.86;36.63;72.92;;
63692;Laerm;49838;51.798;10.954;2023-02-24T07:13:13;62.59;39.43;77.18;;
63692;Laerm;49838;51.798;10.954;2023-02-24T07:15:41;52.88;38.20;68.77;;
63692;Laerm;49838;51.798;10.954;2023-02-24T07:18:14;56.66;36.98;73.92;;
63692;Laerm;49838;51.798;10.954;2023-02-24T07:20:44;59.45;35.97;75.82;;
63692;Laerm;49838;51.798;10.954;2023-02-24T07:23:12;41.64;35.82;51.94;;
63692;Laerm;49838;51.798;10.954;2023-02-24T07:25:40;58.00;39.47;71.86;;
63692;Laerm;49838;51.798;10.954;2023-02-24T07:28:09;50.38;35.10;70.21;;
63692;Laerm;49838;51.798;10.954;2023-02-24T07:30:37;58.50;33.94;75.39;;
63692;Laerm;49838;51.798;10.954;2023-02-24T07:33:05;58.36;35.83;74.00;;
63692;Laerm;49838;51.798;10.954;2023-02-24T07:35:32;59.96;37.49;78.22;;
63692;Laerm;49838;51.798;10.954;2023-02-24T07:38:02;65.63;37.98;87.22;;
63692;Laerm;49838;51.798;10.954;2023-02-24T07:40:31;57.84;42.13;75.34;;
63692;Laerm;49838;51.798;10.954;2023-02-24T07:42:59;51.66;37.04;70.07;;
63692;Laerm;49838;51.798;10.954;2023-02-24T07:45:27;57.63;35.04;75.18;;
63692;Laerm;49838;51.798;10.954;2023-02-24T07:47:55;58.45;37.06;75.84;;
63692;Laerm;49838;51.798;10.954;2023-02-24T07:50:23;57.02;36.03;71.42;;
63692;Laerm;49838;51.798;10.954;2023-02-24T07:52:53;56.17;34.94;74.12;;
63692;Laerm;49838;51.798;10.954;2023-02-24T07:55:21;60.42;36.14;77.13;;
63692;Laerm;49838;51.798;10.954;2023-02-24T07:57:50;60.49;39.49;77.84;;
63692;Laerm;49838;51.798;10.954;2023-02-24T08:00:19;50.97;36.45;68.31;;
63692;Laerm;49838;51.798;10.954;2023-02-24T08:02:54;57.39;37.72;70.83;;
63692;Laerm;49838;51.798;10.954;2023-02-24T08:05:22;58.76;35.61;73.05;;
63692;Laerm;49838;51.798;10.954;2023-02-24T08:07:50;57.60;37.03;75.60;;
63692;Laerm;49838;51.798;10.954;2023-02-24T08:10:18;59.70;37.37;76.75;;
63692;Laerm;49838;51.798;10.954;2023-02-24T08:12:53;61.16;36.41;80.93;;
63692;Laerm;49838;51.798;10.954;2023-02-24T08:15:22;60.25;37.66;74.64;;
63692;Laerm;49838;51.798;10.954;2023-02-24T08:18:00;56.00;36.96;72.69;;
63692;Laerm;49838;51.798;10.954;2023-02-24T08:20:28;60.65;37.97;75.46;;
63692;Laerm;49838;51.798;10.954;2023-02-24T08:23:01;53.05;35.18;70.55;;
63692;Laerm;49838;51.798;10.954;2023-02-24T08:25:31;61.22;35.48;78.64;;
63692;Laerm;49838;51.798;10.954;2023-02-24T08:28:03;59.79;37.20;72.62;;
63692;Laerm;49838;51.798;10.954;2023-02-24T08:30:34;56.01;38.05;70.93;;
63692;Laerm;49838;51.798;10.954;2023-02-24T08:33:06;57.32;35.14;72.76;;
63692;Laerm;49838;51.798;10.954;2023-02-24T08:35:35;56.28;37.18;70.86;;
63692;Laerm;49838;51.798;10.954;2023-02-24T08:38:05;56.92;38.14;70.46;;
63692;Laerm;49838;51.798;10.954;2023-02-24T08:40:36;52.62;36.75;84.37;;
63692;Laerm;49838;51.798;10.954;2023-02-24T08:43:19;59.12;37.26;71.65;;
63692;Laerm;49838;51.798;10.954;2023-02-24T08:45:58;60.60;40.65;80.85;;
63692;Laerm;49838;51.798;10.954;2023-02-24T08:48:28;60.25;41.25;72.35;;
63692;Laerm;49838;51.798;10.954;2023-02-24T08:51:08;60.96;40.01;75.42;;
63692;Laerm;49838;51.798;10.954;2023-02-24T08:53:36;57.95;38.15;72.30;;
63692;Laerm;49838;51.798;10.954;2023-02-24T08:56:07;59.60;38.54;79.07;;
63692;Laerm;49838;51.798;10.954;2023-02-24T08:58:41;55.83;39.15;71.44;;
63692;Laerm;49838;51.798;10.954;2023-02-24T09:01:15;57.79;38.18;73.52;;
63692;Laerm;49838;51.798;10.954;2023-02-24T09:03:50;57.37;38.31;72.22;;
63692;Laerm;49838;51.798;10.954;2023-02-24T09:06:21;59.03;36.71;76.28;;
63692;Laerm;49838;51.798;10.954;2023-02-24T09:08:51;61.64;37.40;73.15;;
63692;Laerm;49838;51.798;10.954;2023-02-24T09:11:42;64.43;43.18;83.11;;
63692;Laerm;49838;51.798;10.954;2023-02-24T09:14:14;52.75;38.05;67.63;;
63692;Laerm;49838;51.798;10.954;2023-02-24T09:16:44;55.76;38.40;70.36;;
63692;Laerm;49838;51.798;10.954;2023-02-24T09:19:28;56.04;37.95;72.52;;
63692;Laerm;49838;51.798;10.954;2023-02-24T09:22:14;59.01;38.49;76.52;;
63692;Laerm;49838;51.798;10.954;2023-02-24T09:24:57;56.09;39.51;71.46;;
63692;Laerm;49838;51.798;10.954;2023-02-24T09:27:38;58.48;37.40;73.64;;
63692;Laerm;49838;51.798;10.954;2023-02-24T09:30:11;56.75;35.66;74.13;;
63692;Laerm;49838;51.798;10.954;2023-02-24T09:32:59;60.14;36.30;74.69;;
63692;Laerm;49838;51.798;10.954;2023-02-24T09:35:27;65.23;42.45;78.88;;
63692;Laerm;49838;51.798;10.954;2023-02-24T09:37:56;59.82;39.90;73.43;;
63692;Laerm;49838;51.798;10.954;2023-02-24T09:40:25;57.75;37.84;70.12;;
63692;Laerm;49838;51.798;10.954;2023-02-24T09:43:10;58.16;37.69;73.90;;
63692;Laerm;49838;51.798;10.954;2023-02-24T09:45:51;63.22;39.05;79.65;;
63692;Laerm;49838;51.798;10.954;2023-02-24T09:48:30;57.23;37.67;71.79;;
63692;Laerm;49838;51.798;10.954;2023-02-24T09:50:59;58.14;37.17;72.05;;
63692;Laerm;49838;51.798;10.954;2023-02-24T09:53:33;56.09;39.11;69.61;;
63692;Laerm;49838;51.798;10.954;2023-02-24T09:56:23;58.65;37.28;78.72;;
63692;Laerm;49838;51.798;10.954;2023-02-24T09:58:58;59.18;39.35;73.05;;
63692;Laerm;49838;51.798;10.954;2023-02-24T10:01:42;60.72;38.53;87.00;;
63692;Laerm;49838;51.798;10.954;2023-02-24T10:07:04;59.64;39.43;72.73;;
63692;Laerm;49838;51.798;10.954;2023-02-24T10:09:34;59.83;38.40;74.94;;
63692;Laerm;49838;51.798;10.954;2023-02-24T10:12:06;63.24;44.02;81.89;;
63692;Laerm;49838;51.798;10.954;2023-02-24T10:14:43;58.62;38.01;74.86;;
63692;Laerm;49838;51.798;10.954;2023-02-24T10:17:16;58.93;37.05;74.23;;
63692;Laerm;49838;51.798;10.954;2023-02-24T10:19:56;62.05;38.82;79.13;;
63692;Laerm;49838;51.798;10.954;2023-02-24T10:22:32;59.31;38.42;74.17;;
63692;Laerm;49838;51.798;10.954;2023-02-24T10:25:24;61.43;37.70;77.83;;
63692;Laerm;49838;51.798;10.954;2023-02-24T10:28:05;54.76;36.93;70.45;;
63692;Laerm;49838;51.798;10.954;2023-02-24T10:30:46;56.66;37.51;70.07;;
63692;Laerm;49838;51.798;10.954;2023-02-24T10:33:19;59.77;38.76;76.34;;
63692;Laerm;49838;51.798;10.954;2023-02-24T10:36:02;57.30;37.75;72.08;;
63692;Laerm;49838;51.798;10.954;2023-02-24T10:38:29;59.48;39.05;73.06;;
63692;Laerm;49838;51.798;10.954;2023-02-24T10:40:59;62.36;39.17;80.29;;
63692;Laerm;49838;51.798;10.954;2023-02-24T10:43:32;61.72;39.18;82.24;;
63692;Laerm;49838;51.798;10.954;2023-02-24T10:46:21;58.93;39.48;75.17;;
63692;Laerm;49838;51.798;10.954;2023-02-24T10:48:55;62.12;40.15;86.99;;
63692;Laerm;49838;51.798;10.954;2023-02-24T10:51:31;59.15;39.10;72.78;;
63692;Laerm;49838;51.798;10.954;2023-02-24T10:54:06;65.67;38.75;90.34;;
63692;Laerm;49838;51.798;10.954;2023-02-24T10:56:48;63.08;38.02;86.01;;
63692;Laerm;49838;51.798;10.954;2023-02-24T10:59:47;57.59;36.46;73.98;;
63692;Laerm;49838;51.798;10.954;2023-02-24T11:02:50;60.06;38.31;73.89;;
63692;Laerm;49838;51.798;10.954;2023-02-24T11:05:40;57.75;39.09;72.87;;
63692;Laerm;49838;51.798;10.954;2023-02-24T11:08:32;61.54;36.18;81.03;;
63692;Laerm;49838;51.798;10.954;2023-02-24T11:11:21;58.83;35.57;73.27;;
63692;Laerm;49838;51.798;10.954;2023-02-24T11:13:55;58.74;39.04;70.43;;
63692;Laerm;49838;51.798;10.954;2023-02-24T11:16:43;56.19;36.80;70.01;;
63692;Laerm;49838;51.798;10.954;2023-02-24T11:19:32;57.06;39.10;72.92;;
63692;Laerm;49838;51.798;10.954;2023-02-24T11:22:04;55.29;36.60;76.94;;
63692;Laerm;49838;51.798;10.954;2023-02-24T11:24:35;59.87;36.85;77.84;;
63692;Laerm;49838;51.798;10.954;2023-02-24T11:27:04;61.83;39.42;76.58;;
63692;Laerm;49838;51.798;10.954;2023-02-24T11:29:55;58.68;38.50;71.82;;
63692;Laerm;49838;51.798;10.954;2023-02-24T11:32:45;61.38;38.31;74.41;;
63692;Laerm;49838;51.798;10.954;2023-02-24T11:35:20;60.48;39.25;75.44;;
63692;Laerm;49838;51.798;10.954;2023-02-24T11:38:00;59.05;38.86;74.84;;
63692;Laerm;49838;51.798;10.954;2023-02-24T11:40:36;59.05;39.29;75.29;;
63692;Laerm;49838;51.798;10.954;2023-02-24T11:43:10;55.15;38.53;70.29;;
63692;Laerm;49838;51.798;10.954;2023-02-24T11:45:41;57.68;38.29;73.04;;
63692;Laerm;49838;51.798;10.954;2023-02-24T11:48:14;61.22;41.07;73.27;;
63692;Laerm;49838;51.798;10.954;2023-02-24T11:50:47;60.67;39.41;76.81;;
63692;Laerm;49838;51.798;10.954;2023-02-24T11:53:25;60.13;39.71;73.57;;
63692;Laerm;49838;51.798;10.954;2023-02-24T11:55:58;55.95;39.67;71.49;;
63692;Laerm;49838;51.798;10.954;2023-02-24T11:58:34;64.55;41.25;82.62;;
63692;Laerm;49838;51.798;10.954;2023-02-24T12:01:09;61.06;40.17;74.90;;
63692;Laerm;49838;51.798;10.954;2023-02-24T12:03:43;58.21;40.31;74.44;;
63692;Laerm;49838;51.798;10.954;2023-02-24T12:06:19;57.18;40.26;71.49;;
63692;Laerm;49838;51.798;10.954;2023-02-24T12:08:51;48.51;41.18;66.19;;
63692;Laerm;49838;51.798;10.954;2023-02-24T12:11:29;56.28;41.21;74.10;;
63692;Laerm;49838;51.798;10.954;2023-02-24T12:14:06;57.04;42.66;70.52;;
63692;Laerm;49838;51.798;10.954;2023-02-24T12:16:42;57.52;40.11;73.11;;
63692;Laerm;49838;51.798;10.954;2023-02-24T12:19:16;54.75;39.12;72.01;;
63692;Laerm;49838;51.798;10.954;2023-02-24T12:21:49;61.56;39.56;75.34;;
63692;Laerm;49838;51.798;10.954;2023-02-24T12:24:19;48.16;39.95;63.48;;
63692;Laerm;49838;51.798;10.954;2023-02-24T12:26:53;55.16;39.53;71.85;;
63692;Laerm;49838;51.798;10.954;2023-02-24T12:29:40;56.71;40.75;75.17;;
63692;Laerm;49838;51.798;10.954;2023-02-24T12:32:22;60.31;38.80;80.29;;
63692;Laerm;49838;51.798;10.954;2023-02-24T12:35:03;58.84;40.00;74.48;;
63692;Laerm;49838;51.798;10.954;2023-02-24T12:37:48;59.79;42.00;72.52;;
63692;Laerm;49838;51.798;10.954;2023-02-24T12:40:28;60.76;40.35;76.71;;
63692;Laerm;49838;51.798;10.954;2023-02-24T12:43:07;58.48;39.53;72.17;;
63692;Laerm;49838;51.798;10.954;2023-02-24T12:45:47;62.61;40.27;94.55;;
63692;Laerm;49838;51.798;10.954;2023-02-24T12:48:28;59.43;40.79;74.87;;
63692;Laerm;49838;51.798;10.954;2023-02-24T12:51:01;59.18;39.94;76.55;;
63692;Laerm;49838;51.798;10.954;2023-02-24T12:53:37;59.01;40.25;73.05;;
63692;Laerm;49838;51.798;10.954;2023-02-24T12:56:14;62.52;41.54;75.63;;
63692;Laerm;49838;51.798;10.954;2023-02-24T12:58:45;58.38;40.00;76.22;;
63692;Laerm;49838;51.798;10.954;2023-02-24T13:01:21;55.75;38.65;71.84;;
63692;Laerm;49838;51.798;10.954;2023-02-24T13:04:05;55.77;39.31;73.59;;
63692;Laerm;49838;51.798;10.954;2023-02-24T13:06:44;55.06;40.37;67.54;;
63692;Laerm;49838;51.798;10.954;2023-02-24T13:09:19;59.72;38.58;76.36;;
63692;Laerm;49838;51.798;10.954;2023-02-24T13:11:54;59.21;39.48;72.91;;
63692;Laerm;49838;51.798;10.954;2023-02-24T13:14:26;57.69;39.26;75.33;;
63692;Laerm;49838;51.798;10.954;2023-02-24T13:17:16;57.74;39.76;73.91;;
63692;Laerm;49838;51.798;10.954;2023-02-24T13:19:45;58.07;40.01;74.94;;
63692;Laerm;49838;51.798;10.954;2023-02-24T13:22:23;57.56;38.83;82.38;;
63692;Laerm;49838;51.798;10.954;2023-02-24T13:25:09;51.44;40.02;69.50;;
63692;Laerm;49838;51.798;10.954;2023-02-24T13:27:41;52.36;39.45;69.06;;
63692;Laerm;49838;51.798;10.954;2023-02-24T13:30:24;61.58;41.02;74.97;;
63692;Laerm;49838;51.798;10.954;2023-02-24T13:33:01;57.90;39.16;73.58;;
63692;Laerm;49838;51.798;10.954;2023-02-24T13:35:31;59.20;39.82;74.87;;
63692;Laerm;49838;51.798;10.954;2023-02-24T13:38:22;60.79;41.16;74.31;;
63692;Laerm;49838;51.798;10.954;2023-02-24T13:40:50;57.68;40.27;71.28;;
63692;Laerm;49838;51.798;10.954;2023-02-24T13:43:26;54.27;41.52;70.31;;
63692;Laerm;49838;51.798;10.954;2023-02-24T13:45:57;59.16;40.49;72.36;;
63692;Laerm;49838;51.798;10.954;2023-02-24T13:48:42;61.41;41.77;75.73;;
63692;Laerm;49838;51.798;10.954;2023-02-24T13:54:24;57.65;41.35;74.57;;
63692;Laerm;49838;51.798;10.954;2023-02-24T13:57:04;59.96;41.88;72.67;;
63692;Laerm;49838;51.798;10.954;2023-02-24T13:59:48;61.75;42.18;75.60;;
63692;Laerm;49838;51.798;10.954;2023-02-24T14:02:21;60.37;40.51;77.64;;
63692;Laerm;49838;51.798;10.954;2023-02-24T14:04:54;60.20;40.51;76.32;;
63692;Laerm;49838;51.798;10.954;2023-02-24T14:07:25;56.16;42.50;78.55;;
63692;Laerm;49838;51.798;10.954;2023-02-24T14:09:56;61.29;42.14;81.54;;
63692;Laerm;49838;51.798;10.954;2023-02-24T14:12:27;64.38;41.90;76.43;;
63692;Laerm;49838;51.798;10.954;2023-02-24T14:14:58;61.29;42.54;74.10;;
63692;Laerm;49838;51.798;10.954;2023-02-24T14:17:28;60.06;41.99;74.54;;